sensor_id;sensor_type;location;lat;lon;timestamp;P1;durP1;ratioP1;P2;durP2;ratioP2
83487;SDS011;73424;49.994;8.184;2024-03-08T00:01:00;16.90;;;11.20;;
83487;SDS011;73424;49.994;8.184;2024-03-08T00:03:25;19.42;;;9.52;;
83487;SDS011;73424;49.994;8.184;2024-03-08T00:05:50;22.00;;;10.30;;
83487;SDS011;73424;49.994;8.184;2024-03-08T00:08:16;15.43;;;10.27;;
83487;SDS011;73424;49.994;8.184;2024-03-08T00:10:41;14.13;;;9.48;;
83487;SDS011;73424;49.994;8.184;2024-03-08T00:13:06;16.80;;;9.87;;
83487;SDS011;73424;49.994;8.184;2024-03-08T00:15:31;18.13;;;10.70;;
83487;SDS011;73424;49.994;8.184;2024-03-08T00:17:57;19.80;;;9.90;;
83487;SDS011;73424;49.994;8.184;2024-03-08T00:20:22;17.65;;;9.95;;
83487;SDS011;73424;49.994;8.184;2024-03-08T00:22:48;21.63;;;10.40;;
83487;SDS011;73424;49.994;8.184;2024-03-08T00:25:13;17.38;;;10.88;;
83487;SDS011;73424;49.994;8.184;2024-03-08T00:27:39;20.50;;;11.85;;
83487;SDS011;73424;49.994;8.184;2024-03-08T00:30:06;16.17;;;9.63;;
83487;SDS011;73424;49.994;8.184;2024-03-08T00:32:32;18.83;;;10.52;;
83487;SDS011;73424;49.994;8.184;2024-03-08T00:34:57;16.43;;;10.17;;
83487;SDS011;73424;49.994;8.184;2024-03-08T00:37:23;18.55;;;10.65;;
83487;SDS011;73424;49.994;8.184;2024-03-08T00:39:49;18.35;;;10.40;;
83487;SDS011;73424;49.994;8.184;2024-03-08T00:42:15;20.35;;;9.77;;
83487;SDS011;73424;49.994;8.184;2024-03-08T00:44:41;18.48;;;10.88;;
83487;SDS011;73424;49.994;8.184;2024-03-08T00:47:06;19.58;;;10.98;;
83487;SDS011;73424;49.994;8.184;2024-03-08T00:49:32;18.83;;;10.07;;
83487;SDS011;73424;49.994;8.184;2024-03-08T00:51:57;18.80;;;10.80;;
83487;SDS011;73424;49.994;8.184;2024-03-08T00:54:22;18.25;;;10.50;;
83487;SDS011;73424;49.994;8.184;2024-03-08T00:56:48;16.77;;;10.15;;
83487;SDS011;73424;49.994;8.184;2024-03-08T00:59:13;18.70;;;11.10;;
83487;SDS011;73424;49.994;8.184;2024-03-08T01:01:39;23.30;;;11.45;;
83487;SDS011;73424;49.994;8.184;2024-03-08T01:04:05;18.60;;;10.65;;
83487;SDS011;73424;49.994;8.184;2024-03-08T01:06:30;18.33;;;11.55;;
83487;SDS011;73424;49.994;8.184;2024-03-08T01:08:55;19.50;;;10.77;;
83487;SDS011;73424;49.994;8.184;2024-03-08T01:11:21;19.43;;;10.23;;
83487;SDS011;73424;49.994;8.184;2024-03-08T01:13:46;18.77;;;10.50;;
83487;SDS011;73424;49.994;8.184;2024-03-08T01:16:12;19.33;;;11.75;;
83487;SDS011;73424;49.994;8.184;2024-03-08T01:18:38;22.08;;;11.32;;
83487;SDS011;73424;49.994;8.184;2024-03-08T01:21:03;20.65;;;10.75;;
83487;SDS011;73424;49.994;8.184;2024-03-08T01:23:29;18.67;;;9.93;;
83487;SDS011;73424;49.994;8.184;2024-03-08T01:25:54;19.00;;;10.25;;
83487;SDS011;73424;49.994;8.184;2024-03-08T01:28:23;20.65;;;11.13;;
83487;SDS011;73424;49.994;8.184;2024-03-08T01:30:51;19.55;;;10.73;;
83487;SDS011;73424;49.994;8.184;2024-03-08T01:33:21;17.20;;;11.07;;
83487;SDS011;73424;49.994;8.184;2024-03-08T01:35:50;19.52;;;10.00;;
83487;SDS011;73424;49.994;8.184;2024-03-08T01:38:16;20.95;;;11.95;;
83487;SDS011;73424;49.994;8.184;2024-03-08T01:40:41;21.15;;;10.90;;
83487;SDS011;73424;49.994;8.184;2024-03-08T01:43:17;18.63;;;11.18;;
83487;SDS011;73424;49.994;8.184;2024-03-08T01:45:46;21.75;;;11.27;;
83487;SDS011;73424;49.994;8.184;2024-03-08T01:48:12;19.27;;;10.55;;
83487;SDS011;73424;49.994;8.184;2024-03-08T01:50:39;19.85;;;11.73;;
83487;SDS011;73424;49.994;8.184;2024-03-08T01:53:06;16.80;;;9.10;;
83487;SDS011;73424;49.994;8.184;2024-03-08T01:55:32;20.88;;;10.60;;
83487;SDS011;73424;49.994;8.184;2024-03-08T01:58:00;21.67;;;10.98;;
83487;SDS011;73424;49.994;8.184;2024-03-08T02:00:27;20.30;;;10.27;;
83487;SDS011;73424;49.994;8.184;2024-03-08T02:02:55;21.73;;;11.30;;
83487;SDS011;73424;49.994;8.184;2024-03-08T02:05:20;20.23;;;11.40;;
83487;SDS011;73424;49.994;8.184;2024-03-08T02:07:46;20.67;;;10.50;;
83487;SDS011;73424;49.994;8.184;2024-03-08T02:10:12;20.80;;;10.23;;
83487;SDS011;73424;49.994;8.184;2024-03-08T02:12:38;19.77;;;11.18;;
83487;SDS011;73424;49.994;8.184;2024-03-08T02:15:04;19.75;;;10.45;;
83487;SDS011;73424;49.994;8.184;2024-03-08T02:17:31;20.98;;;10.93;;
83487;SDS011;73424;49.994;8.184;2024-03-08T02:19:57;19.60;;;11.40;;
83487;SDS011;73424;49.994;8.184;2024-03-08T02:22:22;22.47;;;11.60;;
83487;SDS011;73424;49.994;8.184;2024-03-08T02:24:47;20.63;;;11.45;;
83487;SDS011;73424;49.994;8.184;2024-03-08T02:27:13;19.15;;;11.18;;
83487;SDS011;73424;49.994;8.184;2024-03-08T02:29:38;23.50;;;11.63;;
83487;SDS011;73424;49.994;8.184;2024-03-08T02:32:05;21.65;;;10.07;;
83487;SDS011;73424;49.994;8.184;2024-03-08T02:34:31;19.75;;;11.02;;
83487;SDS011;73424;49.994;8.184;2024-03-08T02:36:56;19.88;;;10.85;;
83487;SDS011;73424;49.994;8.184;2024-03-08T02:39:22;21.05;;;10.98;;
83487;SDS011;73424;49.994;8.184;2024-03-08T02:41:47;20.13;;;10.93;;
83487;SDS011;73424;49.994;8.184;2024-03-08T02:44:12;18.90;;;11.30;;
83487;SDS011;73424;49.994;8.184;2024-03-08T02:46:37;22.90;;;11.43;;
83487;SDS011;73424;49.994;8.184;2024-03-08T02:49:03;18.90;;;10.53;;
83487;SDS011;73424;49.994;8.184;2024-03-08T02:51:28;23.63;;;12.10;;
83487;SDS011;73424;49.994;8.184;2024-03-08T02:53:54;18.15;;;10.48;;
83487;SDS011;73424;49.994;8.184;2024-03-08T02:56:19;21.65;;;11.18;;
83487;SDS011;73424;49.994;8.184;2024-03-08T02:58:46;18.40;;;9.90;;
83487;SDS011;73424;49.994;8.184;2024-03-08T03:01:13;22.20;;;10.77;;
83487;SDS011;73424;49.994;8.184;2024-03-08T03:03:39;20.92;;;10.82;;
83487;SDS011;73424;49.994;8.184;2024-03-08T03:06:05;21.83;;;11.68;;
83487;SDS011;73424;49.994;8.184;2024-03-08T03:08:32;22.50;;;11.10;;
83487;SDS011;73424;49.994;8.184;2024-03-08T03:10:57;22.00;;;12.65;;
83487;SDS011;73424;49.994;8.184;2024-03-08T03:13:23;22.50;;;11.80;;
83487;SDS011;73424;49.994;8.184;2024-03-08T03:15:48;20.00;;;10.43;;
83487;SDS011;73424;49.994;8.184;2024-03-08T03:18:13;21.77;;;11.52;;
83487;SDS011;73424;49.994;8.184;2024-03-08T03:20:39;22.20;;;11.43;;
83487;SDS011;73424;49.994;8.184;2024-03-08T03:23:08;21.08;;;10.00;;
83487;SDS011;73424;49.994;8.184;2024-03-08T03:25:34;19.00;;;11.23;;
83487;SDS011;73424;49.994;8.184;2024-03-08T03:28:03;23.08;;;11.77;;
83487;SDS011;73424;49.994;8.184;2024-03-08T03:30:29;24.30;;;11.43;;
83487;SDS011;73424;49.994;8.184;2024-03-08T03:32:58;21.85;;;10.00;;
83487;SDS011;73424;49.994;8.184;2024-03-08T03:35:31;22.38;;;11.23;;
83487;SDS011;73424;49.994;8.184;2024-03-08T03:37:57;25.10;;;12.38;;
83487;SDS011;73424;49.994;8.184;2024-03-08T03:40:38;24.77;;;12.30;;
83487;SDS011;73424;49.994;8.184;2024-03-08T03:43:07;22.27;;;11.90;;
83487;SDS011;73424;49.994;8.184;2024-03-08T03:45:32;19.40;;;11.52;;
83487;SDS011;73424;49.994;8.184;2024-03-08T03:48:01;23.38;;;11.88;;
83487;SDS011;73424;49.994;8.184;2024-03-08T03:50:27;21.42;;;11.65;;
83487;SDS011;73424;49.994;8.184;2024-03-08T03:52:53;20.42;;;10.40;;
83487;SDS011;73424;49.994;8.184;2024-03-08T03:55:18;21.47;;;11.63;;
83487;SDS011;73424;49.994;8.184;2024-03-08T03:57:44;18.85;;;10.70;;
83487;SDS011;73424;49.994;8.184;2024-03-08T04:00:11;20.52;;;11.68;;
83487;SDS011;73424;49.994;8.184;2024-03-08T04:02:37;25.77;;;12.02;;
83487;SDS011;73424;49.994;8.184;2024-03-08T04:05:04;24.63;;;12.05;;
83487;SDS011;73424;49.994;8.184;2024-03-08T04:07:33;23.60;;;12.32;;
83487;SDS011;73424;49.994;8.184;2024-03-08T04:09:59;25.02;;;12.85;;
83487;SDS011;73424;49.994;8.184;2024-03-08T04:12:25;23.58;;;13.63;;
83487;SDS011;73424;49.994;8.184;2024-03-08T04:14:50;22.20;;;11.35;;
83487;SDS011;73424;49.994;8.184;2024-03-08T04:17:15;22.53;;;10.83;;
83487;SDS011;73424;49.994;8.184;2024-03-08T04:19:42;21.10;;;11.77;;
83487;SDS011;73424;49.994;8.184;2024-03-08T04:22:07;23.48;;;12.02;;
83487;SDS011;73424;49.994;8.184;2024-03-08T04:24:32;23.30;;;11.73;;
83487;SDS011;73424;49.994;8.184;2024-03-08T04:26:58;24.95;;;12.18;;
83487;SDS011;73424;49.994;8.184;2024-03-08T04:29:24;23.42;;;12.35;;
83487;SDS011;73424;49.994;8.184;2024-03-08T04:31:49;23.15;;;12.60;;
83487;SDS011;73424;49.994;8.184;2024-03-08T04:34:14;23.25;;;11.05;;
83487;SDS011;73424;49.994;8.184;2024-03-08T04:36:40;23.75;;;11.70;;
83487;SDS011;73424;49.994;8.184;2024-03-08T04:39:05;27.80;;;12.98;;
83487;SDS011;73424;49.994;8.184;2024-03-08T04:41:30;23.77;;;12.05;;
83487;SDS011;73424;49.994;8.184;2024-03-08T04:43:56;23.73;;;11.98;;
83487;SDS011;73424;49.994;8.184;2024-03-08T04:46:22;21.95;;;11.70;;
83487;SDS011;73424;49.994;8.184;2024-03-08T04:48:48;22.65;;;11.85;;
83487;SDS011;73424;49.994;8.184;2024-03-08T04:51:14;25.85;;;13.35;;
83487;SDS011;73424;49.994;8.184;2024-03-08T04:53:40;26.48;;;12.93;;
83487;SDS011;73424;49.994;8.184;2024-03-08T04:56:06;20.83;;;11.68;;
83487;SDS011;73424;49.994;8.184;2024-03-08T04:58:33;23.77;;;12.65;;
83487;SDS011;73424;49.994;8.184;2024-03-08T05:01:00;26.23;;;13.77;;
83487;SDS011;73424;49.994;8.184;2024-03-08T05:03:26;23.38;;;11.70;;
83487;SDS011;73424;49.994;8.184;2024-03-08T05:05:52;24.33;;;12.30;;
83487;SDS011;73424;49.994;8.184;2024-03-08T05:08:18;23.75;;;12.98;;
83487;SDS011;73424;49.994;8.184;2024-03-08T05:10:43;23.75;;;12.43;;
83487;SDS011;73424;49.994;8.184;2024-03-08T05:13:09;25.50;;;11.95;;
83487;SDS011;73424;49.994;8.184;2024-03-08T05:15:34;22.52;;;11.52;;
83487;SDS011;73424;49.994;8.184;2024-03-08T05:18:00;27.27;;;12.50;;
83487;SDS011;73424;49.994;8.184;2024-03-08T05:20:25;28.00;;;13.73;;
83487;SDS011;73424;49.994;8.184;2024-03-08T05:22:51;29.65;;;14.88;;
83487;SDS011;73424;49.994;8.184;2024-03-08T05:25:16;24.85;;;12.48;;
83487;SDS011;73424;49.994;8.184;2024-03-08T05:27:42;25.90;;;12.63;;
83487;SDS011;73424;49.994;8.184;2024-03-08T05:30:08;27.52;;;12.75;;
83487;SDS011;73424;49.994;8.184;2024-03-08T05:32:39;23.80;;;11.57;;
83487;SDS011;73424;49.994;8.184;2024-03-08T05:35:05;23.73;;;12.25;;
83487;SDS011;73424;49.994;8.184;2024-03-08T05:37:32;27.48;;;13.13;;
83487;SDS011;73424;49.994;8.184;2024-03-08T05:39:57;26.27;;;12.63;;
83487;SDS011;73424;49.994;8.184;2024-03-08T05:42:23;26.20;;;12.80;;
83487;SDS011;73424;49.994;8.184;2024-03-08T05:44:48;22.63;;;11.80;;
83487;SDS011;73424;49.994;8.184;2024-03-08T05:47:14;26.23;;;13.50;;
83487;SDS011;73424;49.994;8.184;2024-03-08T05:49:41;26.00;;;13.00;;
83487;SDS011;73424;49.994;8.184;2024-03-08T05:52:09;26.63;;;13.00;;
83487;SDS011;73424;49.994;8.184;2024-03-08T05:54:34;28.02;;;13.20;;
83487;SDS011;73424;49.994;8.184;2024-03-08T05:57:00;24.50;;;13.07;;
83487;SDS011;73424;49.994;8.184;2024-03-08T05:59:25;24.48;;;12.25;;
83487;SDS011;73424;49.994;8.184;2024-03-08T06:01:50;24.70;;;12.25;;
83487;SDS011;73424;49.994;8.184;2024-03-08T06:04:16;27.13;;;13.37;;
83487;SDS011;73424;49.994;8.184;2024-03-08T06:06:43;26.38;;;13.73;;
83487;SDS011;73424;49.994;8.184;2024-03-08T06:09:08;29.20;;;13.38;;
83487;SDS011;73424;49.994;8.184;2024-03-08T06:11:42;25.70;;;13.25;;
83487;SDS011;73424;49.994;8.184;2024-03-08T06:14:08;27.58;;;14.80;;
83487;SDS011;73424;49.994;8.184;2024-03-08T06:16:33;27.42;;;14.18;;
83487;SDS011;73424;49.994;8.184;2024-03-08T06:19:00;28.35;;;12.93;;
83487;SDS011;73424;49.994;8.184;2024-03-08T06:21:27;25.48;;;13.18;;
83487;SDS011;73424;49.994;8.184;2024-03-08T06:23:53;29.40;;;13.73;;
83487;SDS011;73424;49.994;8.184;2024-03-08T06:26:22;31.42;;;14.50;;
83487;SDS011;73424;49.994;8.184;2024-03-08T06:28:49;25.52;;;13.43;;
83487;SDS011;73424;49.994;8.184;2024-03-08T06:31:15;29.88;;;15.15;;
83487;SDS011;73424;49.994;8.184;2024-03-08T06:33:41;26.42;;;13.55;;
83487;SDS011;73424;49.994;8.184;2024-03-08T06:36:06;26.95;;;13.07;;
83487;SDS011;73424;49.994;8.184;2024-03-08T06:38:32;24.13;;;11.88;;
83487;SDS011;73424;49.994;8.184;2024-03-08T06:40:57;26.75;;;13.88;;
83487;SDS011;73424;49.994;8.184;2024-03-08T06:43:23;28.00;;;14.18;;
83487;SDS011;73424;49.994;8.184;2024-03-08T06:45:50;25.35;;;12.52;;
83487;SDS011;73424;49.994;8.184;2024-03-08T06:48:15;30.45;;;14.98;;
83487;SDS011;73424;49.994;8.184;2024-03-08T06:50:42;29.35;;;14.63;;
83487;SDS011;73424;49.994;8.184;2024-03-08T06:53:08;28.77;;;13.45;;
83487;SDS011;73424;49.994;8.184;2024-03-08T06:55:33;27.77;;;13.77;;
83487;SDS011;73424;49.994;8.184;2024-03-08T06:57:59;28.60;;;14.95;;
83487;SDS011;73424;49.994;8.184;2024-03-08T07:00:24;26.05;;;13.85;;
83487;SDS011;73424;49.994;8.184;2024-03-08T07:02:52;31.40;;;14.00;;
83487;SDS011;73424;49.994;8.184;2024-03-08T07:05:19;24.33;;;13.27;;
83487;SDS011;73424;49.994;8.184;2024-03-08T07:07:44;24.52;;;14.00;;
83487;SDS011;73424;49.994;8.184;2024-03-08T07:10:10;29.10;;;14.70;;
83487;SDS011;73424;49.994;8.184;2024-03-08T07:12:40;26.27;;;12.43;;
83487;SDS011;73424;49.994;8.184;2024-03-08T07:15:06;25.77;;;14.07;;
83487;SDS011;73424;49.994;8.184;2024-03-08T07:17:31;22.60;;;12.48;;
83487;SDS011;73424;49.994;8.184;2024-03-08T07:19:59;26.42;;;14.60;;
83487;SDS011;73424;49.994;8.184;2024-03-08T07:22:27;26.45;;;14.07;;
83487;SDS011;73424;49.994;8.184;2024-03-08T07:24:52;28.37;;;14.67;;
83487;SDS011;73424;49.994;8.184;2024-03-08T07:27:32;23.83;;;13.00;;
83487;SDS011;73424;49.994;8.184;2024-03-08T07:29:59;28.52;;;14.40;;
83487;SDS011;73424;49.994;8.184;2024-03-08T07:32:25;22.38;;;11.25;;
83487;SDS011;73424;49.994;8.184;2024-03-08T07:34:53;24.27;;;13.38;;
83487;SDS011;73424;49.994;8.184;2024-03-08T07:37:20;24.80;;;13.93;;
83487;SDS011;73424;49.994;8.184;2024-03-08T07:39:45;26.48;;;14.70;;
83487;SDS011;73424;49.994;8.184;2024-03-08T07:42:11;25.02;;;12.52;;
83487;SDS011;73424;49.994;8.184;2024-03-08T07:44:37;22.42;;;12.60;;
83487;SDS011;73424;49.994;8.184;2024-03-08T07:47:02;27.40;;;13.95;;
83487;SDS011;73424;49.994;8.184;2024-03-08T07:49:28;28.50;;;14.05;;
83487;SDS011;73424;49.994;8.184;2024-03-08T07:51:55;24.08;;;12.25;;
83487;SDS011;73424;49.994;8.184;2024-03-08T07:54:20;24.08;;;13.57;;
83487;SDS011;73424;49.994;8.184;2024-03-08T07:56:46;22.50;;;11.95;;
83487;SDS011;73424;49.994;8.184;2024-03-08T07:59:11;25.60;;;14.40;;
83487;SDS011;73424;49.994;8.184;2024-03-08T08:01:37;28.75;;;13.82;;
83487;SDS011;73424;49.994;8.184;2024-03-08T08:04:02;25.85;;;12.43;;
83487;SDS011;73424;49.994;8.184;2024-03-08T08:06:28;25.08;;;14.65;;
83487;SDS011;73424;49.994;8.184;2024-03-08T08:08:56;24.92;;;14.55;;
83487;SDS011;73424;49.994;8.184;2024-03-08T08:11:22;29.45;;;14.48;;
83487;SDS011;73424;49.994;8.184;2024-03-08T08:13:47;25.53;;;14.27;;
83487;SDS011;73424;49.994;8.184;2024-03-08T08:16:12;22.67;;;12.77;;
83487;SDS011;73424;49.994;8.184;2024-03-08T08:18:38;26.33;;;13.93;;
83487;SDS011;73424;49.994;8.184;2024-03-08T08:21:04;22.77;;;12.38;;
83487;SDS011;73424;49.994;8.184;2024-03-08T08:23:31;24.27;;;13.02;;
83487;SDS011;73424;49.994;8.184;2024-03-08T08:25:59;18.92;;;10.68;;
83487;SDS011;73424;49.994;8.184;2024-03-08T08:28:26;24.45;;;13.52;;
83487;SDS011;73424;49.994;8.184;2024-03-08T08:30:51;21.92;;;11.95;;
83487;SDS011;73424;49.994;8.184;2024-03-08T08:33:17;24.02;;;12.50;;
83487;SDS011;73424;49.994;8.184;2024-03-08T08:35:42;21.30;;;11.90;;
83487;SDS011;73424;49.994;8.184;2024-03-08T08:38:07;19.37;;;10.50;;
83487;SDS011;73424;49.994;8.184;2024-03-08T08:40:33;24.65;;;12.73;;
83487;SDS011;73424;49.994;8.184;2024-03-08T08:43:00;22.85;;;12.45;;
83487;SDS011;73424;49.994;8.184;2024-03-08T08:45:29;19.90;;;10.45;;
83487;SDS011;73424;49.994;8.184;2024-03-08T08:47:55;21.70;;;11.68;;
83487;SDS011;73424;49.994;8.184;2024-03-08T08:50:20;24.15;;;13.02;;
83487;SDS011;73424;49.994;8.184;2024-03-08T08:52:48;23.00;;;12.40;;
83487;SDS011;73424;49.994;8.184;2024-03-08T08:55:13;21.55;;;11.95;;
83487;SDS011;73424;49.994;8.184;2024-03-08T08:57:39;24.48;;;12.50;;
83487;SDS011;73424;49.994;8.184;2024-03-08T09:00:05;25.88;;;13.35;;
83487;SDS011;73424;49.994;8.184;2024-03-08T09:02:36;20.65;;;12.70;;
83487;SDS011;73424;49.994;8.184;2024-03-08T09:05:02;20.63;;;11.95;;
83487;SDS011;73424;49.994;8.184;2024-03-08T09:07:28;21.98;;;12.43;;
83487;SDS011;73424;49.994;8.184;2024-03-08T09:09:53;18.13;;;11.23;;
83487;SDS011;73424;49.994;8.184;2024-03-08T09:12:23;22.90;;;12.50;;
83487;SDS011;73424;49.994;8.184;2024-03-08T09:14:49;22.30;;;11.38;;
83487;SDS011;73424;49.994;8.184;2024-03-08T09:17:14;21.65;;;13.55;;
83487;SDS011;73424;49.994;8.184;2024-03-08T09:19:45;19.42;;;11.43;;
83487;SDS011;73424;49.994;8.184;2024-03-08T09:22:10;23.05;;;10.98;;
83487;SDS011;73424;49.994;8.184;2024-03-08T09:24:36;19.40;;;11.60;;
83487;SDS011;73424;49.994;8.184;2024-03-08T09:27:01;20.73;;;12.05;;
83487;SDS011;73424;49.994;8.184;2024-03-08T09:29:26;21.02;;;11.98;;
83487;SDS011;73424;49.994;8.184;2024-03-08T09:31:52;21.15;;;11.27;;
83487;SDS011;73424;49.994;8.184;2024-03-08T09:34:17;21.93;;;11.87;;
83487;SDS011;73424;49.994;8.184;2024-03-08T09:36:43;22.90;;;9.68;;
83487;SDS011;73424;49.994;8.184;2024-03-08T09:39:09;21.42;;;11.73;;
83487;SDS011;73424;49.994;8.184;2024-03-08T09:41:34;18.27;;;10.55;;
83487;SDS011;73424;49.994;8.184;2024-03-08T09:44:00;21.20;;;10.77;;
83487;SDS011;73424;49.994;8.184;2024-03-08T09:46:26;24.48;;;14.38;;
83487;SDS011;73424;49.994;8.184;2024-03-08T09:48:55;26.02;;;13.90;;
83487;SDS011;73424;49.994;8.184;2024-03-08T09:51:26;24.25;;;14.40;;
83487;SDS011;73424;49.994;8.184;2024-03-08T09:53:53;20.65;;;12.15;;
83487;SDS011;73424;49.994;8.184;2024-03-08T09:56:18;20.90;;;10.82;;
83487;SDS011;73424;49.994;8.184;2024-03-08T09:58:44;20.73;;;12.10;;
83487;SDS011;73424;49.994;8.184;2024-03-08T10:01:33;19.80;;;11.40;;
83487;SDS011;73424;49.994;8.184;2024-03-08T10:03:58;17.95;;;10.25;;
83487;SDS011;73424;49.994;8.184;2024-03-08T10:06:24;19.93;;;9.83;;
83487;SDS011;73424;49.994;8.184;2024-03-08T10:08:49;22.83;;;13.35;;
83487;SDS011;73424;49.994;8.184;2024-03-08T10:11:16;22.45;;;13.27;;
83487;SDS011;73424;49.994;8.184;2024-03-08T10:13:42;19.35;;;11.70;;
83487;SDS011;73424;49.994;8.184;2024-03-08T10:16:11;17.02;;;10.25;;
83487;SDS011;73424;49.994;8.184;2024-03-08T10:18:36;21.08;;;11.15;;
83487;SDS011;73424;49.994;8.184;2024-03-08T10:21:02;17.25;;;9.25;;
83487;SDS011;73424;49.994;8.184;2024-03-08T10:23:29;18.95;;;10.65;;
83487;SDS011;73424;49.994;8.184;2024-03-08T10:25:55;17.77;;;10.27;;
83487;SDS011;73424;49.994;8.184;2024-03-08T10:28:23;18.02;;;10.90;;
83487;SDS011;73424;49.994;8.184;2024-03-08T10:30:49;14.40;;;8.93;;
83487;SDS011;73424;49.994;8.184;2024-03-08T10:33:15;16.13;;;9.48;;
83487;SDS011;73424;49.994;8.184;2024-03-08T10:35:40;17.40;;;9.45;;
83487;SDS011;73424;49.994;8.184;2024-03-08T10:38:06;13.57;;;8.40;;
83487;SDS011;73424;49.994;8.184;2024-03-08T10:40:35;14.80;;;8.73;;
83487;SDS011;73424;49.994;8.184;2024-03-08T10:43:04;15.25;;;8.88;;
83487;SDS011;73424;49.994;8.184;2024-03-08T10:45:37;15.35;;;8.35;;
83487;SDS011;73424;49.994;8.184;2024-03-08T10:50:42;13.65;;;7.70;;
83487;SDS011;73424;49.994;8.184;2024-03-08T10:53:11;13.93;;;8.32;;
83487;SDS011;73424;49.994;8.184;2024-03-08T10:55:39;13.38;;;8.07;;
83487;SDS011;73424;49.994;8.184;2024-03-08T10:58:06;17.00;;;7.43;;
83487;SDS011;73424;49.994;8.184;2024-03-08T11:00:32;13.75;;;7.70;;
83487;SDS011;73424;49.994;8.184;2024-03-08T11:02:58;13.93;;;8.38;;
83487;SDS011;73424;49.994;8.184;2024-03-08T11:05:38;15.82;;;8.85;;
83487;SDS011;73424;49.994;8.184;2024-03-08T11:08:16;16.02;;;9.23;;
83487;SDS011;73424;49.994;8.184;2024-03-08T11:13:34;15.95;;;8.35;;
83487;SDS011;73424;49.994;8.184;2024-03-08T11:16:06;16.52;;;8.93;;
83487;SDS011;73424;49.994;8.184;2024-03-08T11:18:34;15.13;;;9.07;;
83487;SDS011;73424;49.994;8.184;2024-03-08T11:21:18;16.35;;;9.32;;
83487;SDS011;73424;49.994;8.184;2024-03-08T11:23:44;15.75;;;9.25;;
83487;SDS011;73424;49.994;8.184;2024-03-08T11:26:30;16.40;;;8.35;;
83487;SDS011;73424;49.994;8.184;2024-03-08T11:29:22;16.73;;;10.07;;
83487;SDS011;73424;49.994;8.184;2024-03-08T11:32:03;15.57;;;8.88;;
83487;SDS011;73424;49.994;8.184;2024-03-08T11:34:32;14.98;;;8.77;;
83487;SDS011;73424;49.994;8.184;2024-03-08T11:36:58;14.65;;;8.93;;
83487;SDS011;73424;49.994;8.184;2024-03-08T11:39:24;17.85;;;9.50;;
83487;SDS011;73424;49.994;8.184;2024-03-08T11:41:49;15.52;;;9.52;;
83487;SDS011;73424;49.994;8.184;2024-03-08T11:44:14;15.63;;;9.23;;
83487;SDS011;73424;49.994;8.184;2024-03-08T11:46:41;13.90;;;8.23;;
83487;SDS011;73424;49.994;8.184;2024-03-08T11:49:11;14.40;;;9.27;;
83487;SDS011;73424;49.994;8.184;2024-03-08T11:51:37;16.98;;;10.25;;
83487;SDS011;73424;49.994;8.184;2024-03-08T11:54:03;15.27;;;9.20;;
83487;SDS011;73424;49.994;8.184;2024-03-08T11:56:28;16.05;;;9.05;;
83487;SDS011;73424;49.994;8.184;2024-03-08T11:58:54;16.50;;;9.25;;
83487;SDS011;73424;49.994;8.184;2024-03-08T12:01:24;15.27;;;9.25;;
83487;SDS011;73424;49.994;8.184;2024-03-08T12:03:53;15.32;;;9.07;;
83487;SDS011;73424;49.994;8.184;2024-03-08T12:06:20;13.68;;;8.45;;
83487;SDS011;73424;49.994;8.184;2024-03-08T12:08:46;17.48;;;9.55;;
83487;SDS011;73424;49.994;8.184;2024-03-08T12:11:14;16.42;;;10.30;;
83487;SDS011;73424;49.994;8.184;2024-03-08T12:13:39;16.55;;;9.65;;
83487;SDS011;73424;49.994;8.184;2024-03-08T12:16:06;17.13;;;10.05;;
83487;SDS011;73424;49.994;8.184;2024-03-08T12:18:33;16.58;;;10.10;;
83487;SDS011;73424;49.994;8.184;2024-03-08T12:21:06;16.55;;;9.10;;
83487;SDS011;73424;49.994;8.184;2024-03-08T12:23:36;16.08;;;8.95;;
83487;SDS011;73424;49.994;8.184;2024-03-08T12:28:41;16.60;;;10.05;;
83487;SDS011;73424;49.994;8.184;2024-03-08T12:31:08;18.52;;;9.48;;
83487;SDS011;73424;49.994;8.184;2024-03-08T12:33:37;19.27;;;11.02;;
83487;SDS011;73424;49.994;8.184;2024-03-08T12:36:15;15.82;;;9.52;;
83487;SDS011;73424;49.994;8.184;2024-03-08T12:38:48;16.10;;;9.57;;
83487;SDS011;73424;49.994;8.184;2024-03-08T12:41:14;16.45;;;10.15;;
83487;SDS011;73424;49.994;8.184;2024-03-08T12:43:40;16.70;;;10.05;;
83487;SDS011;73424;49.994;8.184;2024-03-08T12:46:06;18.20;;;10.15;;
83487;SDS011;73424;49.994;8.184;2024-03-08T12:48:34;17.05;;;10.32;;
83487;SDS011;73424;49.994;8.184;2024-03-08T12:51:00;16.65;;;10.07;;
83487;SDS011;73424;49.994;8.184;2024-03-08T12:53:26;18.90;;;10.45;;
83487;SDS011;73424;49.994;8.184;2024-03-08T12:55:53;17.33;;;9.57;;
83487;SDS011;73424;49.994;8.184;2024-03-08T12:58:21;17.50;;;10.73;;
83487;SDS011;73424;49.994;8.184;2024-03-08T13:00:46;15.90;;;9.18;;
83487;SDS011;73424;49.994;8.184;2024-03-08T13:03:12;17.17;;;10.45;;
83487;SDS011;73424;49.994;8.184;2024-03-08T13:05:37;17.17;;;9.47;;
83487;SDS011;73424;49.994;8.184;2024-03-08T13:08:05;18.42;;;11.00;;
83487;SDS011;73424;49.994;8.184;2024-03-08T13:10:31;16.38;;;10.48;;
83487;SDS011;73424;49.994;8.184;2024-03-08T13:12:56;17.63;;;11.03;;
83487;SDS011;73424;49.994;8.184;2024-03-08T13:15:21;14.40;;;8.70;;
83487;SDS011;73424;49.994;8.184;2024-03-08T13:17:47;18.97;;;9.97;;
83487;SDS011;73424;49.994;8.184;2024-03-08T13:20:13;14.98;;;9.27;;
83487;SDS011;73424;49.994;8.184;2024-03-08T13:22:43;18.35;;;10.88;;
83487;SDS011;73424;49.994;8.184;2024-03-08T13:25:08;17.23;;;10.13;;
83487;SDS011;73424;49.994;8.184;2024-03-08T13:27:38;17.38;;;10.30;;
83487;SDS011;73424;49.994;8.184;2024-03-08T13:30:08;17.98;;;10.60;;
83487;SDS011;73424;49.994;8.184;2024-03-08T13:32:41;17.13;;;9.80;;
83487;SDS011;73424;49.994;8.184;2024-03-08T13:35:12;16.77;;;10.23;;
83487;SDS011;73424;49.994;8.184;2024-03-08T13:37:41;16.33;;;10.07;;
83487;SDS011;73424;49.994;8.184;2024-03-08T13:40:08;16.50;;;10.82;;
83487;SDS011;73424;49.994;8.184;2024-03-08T13:42:39;17.45;;;10.90;;
83487;SDS011;73424;49.994;8.184;2024-03-08T13:45:05;15.82;;;9.93;;
83487;SDS011;73424;49.994;8.184;2024-03-08T13:47:33;18.27;;;9.90;;
83487;SDS011;73424;49.994;8.184;2024-03-08T13:49:59;16.92;;;10.40;;
83487;SDS011;73424;49.994;8.184;2024-03-08T13:52:25;17.55;;;9.98;;
83487;SDS011;73424;49.994;8.184;2024-03-08T13:54:54;16.27;;;10.10;;
83487;SDS011;73424;49.994;8.184;2024-03-08T13:57:19;16.35;;;9.68;;
83487;SDS011;73424;49.994;8.184;2024-03-08T13:59:45;16.83;;;9.63;;
83487;SDS011;73424;49.994;8.184;2024-03-08T14:02:10;15.53;;;8.53;;
83487;SDS011;73424;49.994;8.184;2024-03-08T14:04:38;15.18;;;9.00;;
83487;SDS011;73424;49.994;8.184;2024-03-08T14:07:05;15.98;;;10.80;;
83487;SDS011;73424;49.994;8.184;2024-03-08T14:09:33;16.17;;;9.10;;
83487;SDS011;73424;49.994;8.184;2024-03-08T14:12:02;14.43;;;9.68;;
83487;SDS011;73424;49.994;8.184;2024-03-08T14:14:32;17.15;;;10.75;;
83487;SDS011;73424;49.994;8.184;2024-03-08T14:17:03;16.45;;;9.57;;
83487;SDS011;73424;49.994;8.184;2024-03-08T14:19:29;18.08;;;10.25;;
83487;SDS011;73424;49.994;8.184;2024-03-08T14:24:24;14.80;;;8.68;;
83487;SDS011;73424;49.994;8.184;2024-03-08T14:26:50;16.08;;;9.07;;
83487;SDS011;73424;49.994;8.184;2024-03-08T14:29:16;16.45;;;9.85;;
83487;SDS011;73424;49.994;8.184;2024-03-08T14:31:43;16.42;;;9.70;;